Wednesday, April 01, 2015
04:34 UTC
  |  Log In   |  Register Free
Airport Search:

Seattle-Tacoma International Airport
(KSEA)

FAA data valid effective March 05, 2015 - April 30, 2015 (unless otherwise noted).

 
 
 
 
 
 
 
 
 
 
 
 
 
 

Current Aviation Weather for Seattle-Tacoma International Airport (KSEA)

The most recent METAR observation for KSEA was updated at: 0419
METAR Summary (Translated METAR)
KSEA
010353Z 22007KT 10SM OVC024 08/04 A3017 RMK AO2 SLP224 T00830039 PNO $
KRNT
010353Z AUTO 05006KT 10SM OVC027 08/04 A3017 RMK AO2 SLP222 T00780044
(4.6 nm NE from KSEA)
KBFI
010353Z 06006KT 10SM -RA BKN027 OVC032 08/04 A3018 RMK AO2 RAB47 SLP218 P0000 T00830039
(4.9 nm NE from KSEA)
TAF Summary (Translated TAF)
KSEA
010300Z 0103/0206 22008KT P6SM VCSH BKN028 BKN080 BKN200 TEMPO 0103/0106 SCT028 BKN080 BKN200 FM011200 19006KT P6SM BKN030 BKN050 FM012000 22010KT P6SM -SHRA BKN035 BKN060
KBFI
(4.9 nm NE from KSEA)
311855Z 3119/0118 VRB05KT P6SM VCSH SCT030 BKN045 FM312100 21010KT P6SM VCSH SCT030 BKN045 TEMPO 3122/0102 -SHRA BKN025 BKN045 FM010300 17007KT P6SM VCSH SCT035 BKN060
  Airport Weather Conditions for KSEA

 Current Weather at SEA
47° F
Overcast
Southwest winds at 8.1 mph
SEA NOAA Radar

Pressure: 30.17 in
Humidity: 74%
Wind: Southwest at 8.1 MPH (7 KT)
Dew Point: 39.0°F
Visibility: 10.00 mi


Airport Weather Forecast for KSEA

Translated METAR and TAF for KSEA
Translated METAR for KSEA (0433 UTC 01 April 2015)
found at http://aviationweather.gov/adds/metars/
 
METAR text: KSEA 010353Z 22007KT 10SM OVC024 08/04 A3017 RMK AO2 SLP224 T00830039 PNO $
Conditions at: KSEA (SEATTLE/METRO , WA, US) observed 0353 UTC 01 April 2015
Temperature: 8.3°C (47°F)
Dewpoint: 3.9°C (39°F) [RH = 74%]
Pressure (altimeter): 30.17 inches Hg (1021.8 mb)
[Sea-level pressure: 1022.4 mb]
Winds: from the SW (220 degrees) at 8 MPH (7 knots; 3.6 m/s)
Visibility: 10 or more miles (16+ km)
Ceiling: 2400 feet AGL
Clouds: overcast cloud deck at 2400 feet AGL
Weather:
SOME DATA ABOVE MAY BE INACCURATE!!!
"$" is an indication the sensor requires maintenance
Translated TAF for KSEA
Forecast for: KSEA (SEATTLE/METRO , WA, US)
TAF Text: KSEA 010300Z 0103/0206 22008KT P6SM VCSH BKN028 BKN080 BKN200
Forecast period: 0300 to 1200 UTC 01 April 2015
Forecast type: FROM: standard forecast or significant change
Winds: from the SW (220 degrees) at 9 MPH (8 knots; 4.2 m/s)
Visibility: 6 or more miles (10+ km)
Ceiling: 2800 feet AGL
Clouds: broken clouds at 2800 feet AGL
broken clouds at 8000 feet AGL
broken clouds at 20000 feet AGL
Weather: VCSH  (showers in vicinity)
TAF Text: TEMPO 0103/0106 SCT028 BKN080 BKN200
Forecast period: 0300 to 0600 UTC 01 April 2015
Forecast type: TEMPORARY: The following changes expected for less than half the time period
Ceiling: 8000 feet AGL
Clouds: scattered clouds at 2800 feet AGL
broken clouds at 8000 feet AGL
broken clouds at 20000 feet AGL
Weather: no significant weather forecast for this period
TAF Text: FM011200 19006KT P6SM BKN030 BKN050
Forecast period: 1200 to 2000 UTC 01 April 2015
Forecast type: FROM: standard forecast or significant change
Winds: from the S (190 degrees) at 7 MPH (6 knots; 3.1 m/s)
Visibility: 6 or more miles (10+ km)
Ceiling: 3000 feet AGL
Clouds: broken clouds at 3000 feet AGL
broken clouds at 5000 feet AGL
Weather: no significant weather forecast for this period
TAF Text: FM012000 22010KT P6SM -SHRA BKN035 BKN060
Forecast period: 2000 UTC 01 April 2015 to 0600 UTC 02 April 2015
Forecast type: FROM: standard forecast or significant change
Winds: from the SW (220 degrees) at 12 MPH (10 knots; 5.2 m/s)
Visibility: 6 or more miles (10+ km)
Ceiling: 3500 feet AGL
Clouds: broken clouds at 3500 feet AGL
broken clouds at 6000 feet AGL
Weather: -SHRA  (light rain showers)

Find All Airport Services Find A Hotel Find A Rental Car Find A Golf Course Find A Restaurant $100 Hamburger



FBO's on the Field
FBO Company Facility Photos Services Transportation Aviation Fuel Prices: Prices include tax
Catering Weather Repair Courtesy Rental Type 100LL JetA JetA+ MOGAS 8087
 
Aircraft Service Intl.

This FBO has not yet been rated
FS:Avfuel
Last Updated: Mar-31
Login to update fuel prices
SS:
Contact Aircraft Service Intl.More FBO Information
 
Add another FBO Facility Photos Catering Weather Repair Courtesy Rental Type 100LL JetA JetA+ MOGAS 8087
Services Transportation Aviation Fuel Prices: Prices include tax


model-print
model-print
model-print
model-print